createdAt,value
2023-05-20T00:02:14.667Z,6.87
2023-05-20T00:04:43.965Z,6.50
2023-05-20T00:07:12.391Z,6.60
2023-05-20T00:09:40.848Z,6.10
2023-05-20T00:12:09.503Z,6.20
2023-05-20T00:14:38.042Z,6.37
2023-05-20T00:17:07.976Z,6.47
2023-05-20T00:19:36.394Z,6.73
2023-05-20T00:22:04.887Z,6.53
2023-05-20T00:24:33.246Z,5.77
2023-05-20T00:27:02.737Z,6.23
2023-05-20T00:29:31.181Z,6.07
2023-05-20T00:32:00.516Z,6.43
2023-05-20T00:34:30.270Z,6.33
2023-05-20T00:36:59.925Z,6.73
2023-05-20T00:39:29.703Z,6.50
2023-05-20T00:42:00.473Z,6.60
2023-05-20T00:44:28.905Z,5.97
2023-05-20T00:46:58.102Z,6.23
2023-05-20T00:49:26.631Z,6.47
2023-05-20T00:51:56.629Z,6.60
2023-05-20T00:54:25.070Z,6.53
2023-05-20T00:56:53.920Z,5.67
2023-05-20T00:59:22.355Z,6.00
2023-05-20T01:01:50.944Z,6.30
2023-05-20T01:04:19.516Z,6.80
2023-05-20T01:06:48.049Z,5.43
2023-05-20T01:09:17.835Z,6.60
2023-05-20T01:11:53.007Z,5.97
2023-05-20T01:14:24.553Z,6.30
2023-05-20T01:16:54.933Z,6.17
2023-05-20T01:19:30.162Z,5.80
2023-05-20T01:22:01.346Z,6.27
2023-05-20T01:24:31.143Z,6.13
2023-05-20T01:27:00.877Z,6.20
2023-05-20T01:29:29.294Z,5.80
2023-05-20T01:32:01.133Z,5.87
2023-05-20T01:34:29.814Z,6.43
2023-05-20T01:37:00.956Z,5.93
2023-05-20T01:39:31.940Z,5.50
2023-05-20T01:42:02.830Z,5.80
2023-05-20T01:44:31.662Z,5.77
2023-05-20T01:47:01.730Z,5.90
2023-05-20T01:49:30.441Z,5.77
2023-05-20T01:52:02.411Z,6.00
2023-05-20T01:54:32.376Z,6.00
2023-05-20T01:57:01.474Z,6.23
2023-05-20T01:59:30.003Z,6.00
2023-05-20T02:02:01.799Z,6.27
2023-05-20T02:04:30.478Z,5.60
2023-05-20T02:07:00.207Z,5.97
2023-05-20T02:09:29.254Z,6.00
2023-05-20T02:11:59.871Z,6.23
2023-05-20T02:14:28.276Z,5.07
2023-05-20T02:17:04.519Z,5.43
2023-05-20T02:19:32.949Z,5.80
2023-05-20T02:22:01.592Z,5.73
2023-05-20T02:24:30.016Z,5.97
2023-05-20T02:27:01.792Z,5.70
2023-05-20T02:29:30.325Z,5.33
2023-05-20T02:32:01.102Z,5.77
2023-05-20T02:34:30.441Z,5.73
2023-05-20T02:37:00.062Z,5.70
2023-05-20T02:39:29.521Z,5.90
2023-05-20T02:42:00.439Z,6.00
2023-05-20T02:44:28.795Z,6.27
2023-05-20T02:46:57.360Z,6.47
2023-05-20T02:49:25.749Z,6.43
2023-05-20T02:51:54.143Z,5.43
2023-05-20T02:54:22.751Z,5.40
2023-05-20T02:56:51.137Z,6.43
2023-05-20T02:59:20.874Z,5.77
2023-05-20T03:01:49.505Z,5.53
2023-05-20T03:04:19.277Z,5.97
2023-05-20T03:06:47.829Z,5.93
2023-05-20T03:09:16.469Z,5.50
2023-05-20T03:11:44.869Z,5.50
2023-05-20T03:14:21.483Z,5.67
2023-05-20T03:16:49.867Z,5.87
2023-05-20T03:19:18.240Z,6.23
2023-05-20T03:21:46.664Z,5.83
2023-05-20T03:24:15.060Z,5.60
2023-05-20T03:26:43.936Z,6.40
2023-05-20T03:29:13.805Z,5.87
2023-05-20T03:31:43.652Z,6.00
2023-05-20T03:34:12.109Z,6.03
2023-05-20T03:36:40.603Z,5.83
2023-05-20T03:39:08.998Z,5.83
2023-05-20T03:41:38.020Z,5.87
2023-05-20T03:44:06.712Z,5.80
2023-05-20T03:46:35.145Z,6.13
2023-05-20T03:49:05.872Z,5.43
2023-05-20T03:51:34.351Z,5.33
2023-05-20T03:54:03.220Z,6.13
2023-05-20T03:56:31.630Z,5.37
2023-05-20T03:59:01.975Z,5.27
2023-05-20T04:01:30.473Z,5.63
2023-05-20T04:03:58.865Z,5.67
2023-05-20T04:06:28.666Z,6.10
2023-05-20T04:08:57.175Z,5.80
2023-05-20T04:11:25.947Z,6.17
2023-05-20T04:13:54.785Z,5.67
2023-05-20T04:16:23.184Z,6.33
2023-05-20T04:18:52.644Z,6.20
2023-05-20T04:21:21.086Z,5.93
2023-05-20T04:23:50.817Z,5.70
2023-05-20T04:26:19.233Z,6.00
2023-05-20T04:28:49.726Z,5.67
2023-05-20T04:31:18.643Z,5.37
2023-05-20T04:33:47.188Z,5.43
2023-05-20T04:36:16.841Z,5.07
2023-05-20T04:38:45.509Z,6.03
2023-05-20T04:41:16.011Z,5.37
2023-05-20T04:43:45.849Z,5.97
2023-05-20T04:46:14.299Z,6.50
2023-05-20T04:48:43.877Z,5.73
2023-05-20T04:51:12.423Z,5.50
2023-05-20T04:53:40.850Z,5.03
2023-05-20T04:56:09.317Z,5.97
2023-05-20T04:58:39.666Z,5.83
2023-05-20T05:01:08.169Z,5.73
2023-05-20T05:03:36.978Z,6.10
2023-05-20T05:06:05.466Z,6.10
2023-05-20T05:08:33.872Z,5.70
2023-05-20T05:11:06.232Z,6.03
2023-05-20T05:13:34.702Z,5.50
2023-05-20T05:16:05.597Z,5.80
2023-05-20T05:18:34.042Z,6.00
2023-05-20T05:21:04.636Z,5.60
2023-05-20T05:23:33.192Z,5.60
2023-05-20T05:26:04.874Z,5.90
2023-05-20T05:28:33.369Z,7.50
2023-05-20T05:31:03.669Z,7.90
2023-05-20T05:33:33.488Z,8.53
2023-05-20T05:36:04.268Z,8.43
2023-05-20T05:38:32.673Z,8.87
2023-05-20T05:41:01.882Z,9.83
2023-05-20T05:43:30.348Z,10.00
2023-05-20T05:45:58.739Z,9.77
2023-05-20T05:48:27.352Z,10.83
2023-05-20T05:50:57.154Z,10.10
2023-05-20T05:53:25.742Z,9.30
2023-05-20T05:55:54.180Z,9.70
2023-05-20T05:58:22.825Z,9.47
2023-05-20T06:00:53.002Z,9.93
2023-05-20T06:03:21.547Z,10.00
2023-05-20T06:05:50.136Z,10.37
2023-05-20T06:08:19.912Z,9.77
2023-05-20T06:10:50.034Z,9.70
2023-05-20T06:13:19.182Z,10.40
2023-05-20T06:15:51.235Z,9.53
2023-05-20T06:18:19.830Z,10.30
2023-05-20T06:20:48.262Z,9.80
2023-05-20T06:23:16.688Z,9.37
2023-05-20T06:25:46.459Z,10.17
2023-05-20T06:28:14.844Z,9.70
2023-05-20T06:30:43.600Z,9.27
2023-05-20T06:33:12.029Z,10.90
2023-05-20T06:35:40.648Z,10.00
2023-05-20T06:38:09.150Z,11.70
2023-05-20T06:40:37.770Z,11.40
2023-05-20T06:43:07.540Z,10.33
2023-05-20T06:45:36.150Z,10.23
2023-05-20T06:48:04.960Z,9.43
2023-05-20T06:50:33.339Z,9.17
2023-05-20T06:53:03.388Z,10.13
2023-05-20T06:55:32.034Z,9.47
2023-05-20T06:58:00.552Z,10.47
2023-05-20T07:00:31.210Z,9.97
2023-05-20T07:02:59.676Z,10.43
2023-05-20T07:05:28.988Z,9.40
2023-05-20T07:07:57.483Z,9.47
2023-05-20T07:10:26.285Z,10.13
2023-05-20T07:12:54.731Z,9.67
2023-05-20T07:15:23.131Z,10.60
2023-05-20T07:17:53.258Z,9.50
2023-05-20T07:20:21.904Z,10.07
2023-05-20T07:23:00.979Z,8.43
2023-05-20T07:25:29.377Z,10.17
2023-05-20T07:27:58.062Z,11.07
2023-05-20T07:30:26.694Z,10.60
2023-05-20T07:32:56.840Z,9.93
2023-05-20T07:35:25.654Z,12.17
2023-05-20T07:37:54.185Z,10.97
2023-05-20T07:40:23.126Z,10.63
2023-05-20T07:42:51.531Z,10.70
2023-05-20T07:45:20.033Z,10.53
2023-05-20T07:47:48.485Z,10.53
2023-05-20T07:50:18.310Z,11.13
2023-05-20T07:52:55.924Z,11.73
2023-05-20T07:55:25.354Z,11.30
2023-05-20T07:57:53.838Z,12.07
2023-05-20T08:00:22.371Z,11.80
2023-05-20T08:02:50.887Z,12.90
2023-05-20T08:05:22.750Z,12.90
2023-05-20T08:07:51.239Z,14.77
2023-05-20T08:10:19.943Z,14.57
2023-05-20T08:12:51.776Z,15.87
2023-05-20T08:15:20.335Z,14.33
2023-05-20T08:17:48.715Z,13.97
2023-05-20T08:20:17.166Z,14.97
2023-05-20T08:22:47.438Z,15.13
2023-05-20T08:25:16.182Z,13.60
2023-05-20T08:27:44.818Z,14.47
2023-05-20T08:30:13.683Z,13.77
2023-05-20T08:32:42.119Z,13.50
2023-05-20T08:35:11.331Z,12.73
2023-05-20T08:37:39.701Z,13.20
2023-05-20T08:40:11.858Z,13.00
2023-05-20T08:42:44.359Z,13.13
2023-05-20T08:45:13.979Z,13.73
2023-05-20T08:47:43.990Z,15.37
2023-05-20T08:50:14.282Z,15.07
2023-05-20T08:52:45.373Z,12.93
2023-05-20T08:55:22.823Z,12.33
2023-05-20T08:57:51.634Z,12.83
2023-05-20T09:00:20.894Z,13.70
2023-05-20T09:02:49.490Z,12.03
2023-05-20T09:05:18.331Z,12.80
2023-05-20T09:07:46.925Z,11.97
2023-05-20T09:10:16.928Z,12.97
2023-05-20T09:12:46.930Z,12.67
2023-05-20T09:15:15.388Z,12.60
2023-05-20T09:17:43.844Z,12.50
2023-05-20T09:20:13.077Z,10.37
2023-05-20T09:22:41.635Z,10.67
2023-05-20T09:25:12.414Z,7.70
2023-05-20T09:27:42.612Z,6.90
2023-05-20T09:30:12.976Z,8.20
2023-05-20T09:32:41.803Z,8.23
2023-05-20T09:35:14.056Z,8.13
2023-05-20T09:37:44.248Z,8.70
2023-05-20T09:40:15.401Z,7.90
2023-05-20T09:42:54.028Z,8.60
2023-05-20T09:45:25.257Z,7.87
2023-05-20T09:47:56.462Z,8.30
2023-05-20T09:50:26.019Z,7.80
2023-05-20T09:52:55.717Z,7.07
2023-05-20T09:55:26.170Z,7.37
2023-05-20T09:57:57.325Z,7.17
2023-05-20T10:00:26.033Z,6.50
2023-05-20T10:02:55.053Z,7.03
2023-05-20T10:05:28.622Z,6.83
2023-05-20T10:08:33.164Z,7.27
2023-05-20T10:11:11.887Z,6.17
2023-05-20T10:13:53.575Z,5.37
2023-05-20T10:16:35.500Z,6.00
2023-05-20T10:19:21.526Z,5.30
2023-05-20T10:21:58.521Z,6.20
2023-05-20T10:24:38.062Z,4.40
2023-05-20T10:27:12.858Z,4.27
2023-05-20T10:32:28.619Z,3.60
2023-05-20T10:35:02.080Z,3.80
2023-05-20T10:37:33.111Z,3.67
2023-05-20T10:40:07.981Z,3.60
2023-05-20T10:42:36.410Z,4.37
2023-05-20T10:45:08.115Z,3.70
2023-05-20T10:47:36.869Z,3.30
2023-05-20T10:50:07.868Z,3.27
2023-05-20T10:52:38.368Z,3.30
2023-05-20T10:55:08.515Z,3.40
2023-05-20T10:57:37.713Z,3.60
2023-05-20T11:00:11.790Z,4.00
2023-05-20T11:02:42.082Z,3.70
2023-05-20T11:05:12.546Z,3.60
2023-05-20T11:07:41.273Z,4.23
2023-05-20T11:10:11.046Z,4.83
2023-05-20T11:12:40.717Z,15.10
2023-05-20T11:15:13.065Z,4.10
2023-05-20T11:17:53.670Z,3.00
2023-05-20T11:20:22.378Z,3.27
2023-05-20T11:22:51.394Z,3.70
2023-05-20T11:25:20.713Z,7.23
2023-05-20T11:27:59.378Z,7.83
2023-05-20T11:30:29.293Z,3.27
2023-05-20T11:32:59.482Z,2.80
2023-05-20T11:35:30.590Z,2.20
2023-05-20T11:38:02.667Z,3.53
2023-05-20T11:40:46.399Z,2.70
2023-05-20T11:43:19.290Z,3.00
2023-05-20T11:45:55.808Z,2.87
2023-05-20T11:48:25.268Z,2.50
2023-05-20T11:50:55.443Z,3.10
2023-05-20T11:53:25.410Z,2.87
2023-05-20T11:55:56.499Z,3.70
2023-05-20T11:58:26.315Z,3.63
2023-05-20T12:01:05.175Z,3.70
2023-05-20T12:03:42.352Z,3.40
2023-05-20T12:06:13.265Z,3.43
2023-05-20T12:08:41.655Z,3.67
2023-05-20T12:11:10.143Z,4.13
2023-05-20T12:13:38.988Z,3.70
2023-05-20T12:16:09.960Z,3.90
2023-05-20T12:18:38.790Z,4.03
2023-05-20T12:21:08.338Z,3.88
2023-05-20T12:23:36.741Z,3.20
2023-05-20T12:26:07.072Z,3.70
2023-05-20T12:28:35.480Z,3.60
2023-05-20T12:31:04.664Z,3.22
2023-05-20T12:33:34.471Z,3.67
2023-05-20T12:36:02.992Z,3.47
2023-05-20T12:38:31.467Z,3.45
2023-05-20T12:40:59.872Z,3.20
2023-05-20T12:43:28.246Z,3.35
2023-05-20T12:45:57.051Z,3.58
2023-05-20T12:48:25.486Z,3.50
2023-05-20T12:50:55.194Z,3.63
2023-05-20T12:53:23.646Z,3.65
2023-05-20T12:55:52.040Z,3.75
2023-05-20T12:58:20.729Z,3.58
2023-05-20T13:00:49.256Z,3.80
2023-05-20T13:03:18.071Z,3.67
2023-05-20T13:05:46.716Z,3.13
2023-05-20T13:08:16.446Z,4.35
2023-05-20T13:10:44.806Z,7.55
2023-05-20T13:13:13.920Z,6.82
2023-05-20T13:15:42.359Z,3.90
2023-05-20T13:18:11.142Z,3.75
2023-05-20T13:20:39.571Z,3.50
2023-05-20T13:23:10.764Z,4.22
2023-05-20T13:25:40.996Z,3.47
2023-05-20T13:28:10.331Z,4.07
2023-05-20T13:30:39.124Z,3.38
2023-05-20T13:33:09.920Z,3.83
2023-05-20T13:35:38.420Z,3.28
2023-05-20T13:38:10.185Z,3.45
2023-05-20T13:40:39.917Z,3.70
2023-05-20T13:43:09.699Z,3.92
2023-05-20T13:45:38.093Z,3.10
2023-05-20T13:48:09.481Z,3.60
2023-05-20T13:50:37.864Z,3.50
2023-05-20T13:53:07.472Z,3.30
2023-05-20T13:55:36.511Z,3.17
2023-05-20T13:58:11.904Z,3.95
2023-05-20T14:00:40.632Z,3.28
2023-05-20T14:03:10.555Z,3.35
2023-05-20T14:05:39.091Z,3.90
2023-05-20T14:08:09.837Z,3.22
2023-05-20T14:10:38.219Z,3.53
2023-05-20T14:13:08.963Z,3.25
2023-05-20T14:15:38.955Z,5.03
2023-05-20T14:18:09.813Z,3.17
2023-05-20T14:20:38.284Z,3.83
2023-05-20T14:23:06.674Z,3.22
2023-05-20T14:25:35.219Z,3.28
2023-05-20T14:28:03.925Z,3.10
2023-05-20T14:30:32.408Z,3.30
2023-05-20T14:33:02.271Z,3.50
2023-05-20T14:35:30.799Z,3.05
2023-05-20T14:37:59.235Z,3.58
2023-05-20T14:40:27.877Z,3.53
2023-05-20T14:42:56.320Z,3.75
2023-05-20T14:45:24.785Z,2.95
2023-05-20T14:47:59.445Z,3.30
2023-05-20T14:50:29.264Z,3.40
2023-05-20T14:52:57.663Z,4.60
2023-05-20T14:55:26.065Z,3.22
2023-05-20T14:57:54.465Z,3.08
2023-05-20T15:00:23.108Z,3.10
2023-05-20T15:02:51.610Z,3.10
2023-05-20T15:05:20.125Z,3.13
2023-05-20T15:07:49.941Z,3.10
2023-05-20T15:10:18.397Z,3.28
2023-05-20T15:12:46.829Z,3.20
2023-05-20T15:15:15.587Z,3.20
2023-05-20T15:17:44.035Z,3.20
2023-05-20T15:20:13.302Z,2.97
2023-05-20T15:22:43.968Z,3.10
2023-05-20T15:25:13.793Z,3.10
2023-05-20T15:27:42.448Z,3.10
2023-05-20T15:30:11.620Z,3.22
2023-05-20T15:32:41.311Z,3.22
2023-05-20T15:35:11.076Z,3.20
2023-05-20T15:37:39.457Z,3.08
2023-05-20T15:40:10.462Z,4.30
2023-05-20T15:42:40.961Z,3.28
2023-05-20T15:45:10.941Z,3.80
2023-05-20T15:47:40.840Z,3.42
2023-05-20T15:50:12.267Z,3.47
2023-05-20T15:52:40.887Z,3.33
2023-05-20T15:55:11.739Z,3.33
2023-05-20T15:57:41.505Z,3.47
2023-05-20T16:00:11.769Z,3.17
2023-05-20T16:02:41.398Z,3.50
2023-05-20T16:05:11.436Z,3.13
2023-05-20T16:07:42.541Z,3.53
2023-05-20T16:10:11.771Z,3.40
2023-05-20T16:12:41.597Z,3.47
2023-05-20T16:15:11.559Z,3.40
2023-05-20T16:17:40.517Z,3.50
2023-05-20T16:20:11.028Z,3.30
2023-05-20T16:22:39.421Z,3.50
2023-05-20T16:25:09.364Z,3.42
2023-05-20T16:27:38.248Z,3.30
2023-05-20T16:30:12.159Z,2.90
2023-05-20T16:32:41.079Z,3.15
2023-05-20T16:35:11.638Z,3.22
2023-05-20T16:37:40.529Z,6.50
2023-05-20T16:40:11.245Z,5.63
2023-05-20T16:42:40.610Z,4.88
2023-05-20T16:45:13.493Z,3.80
2023-05-20T16:47:41.965Z,3.55
2023-05-20T16:50:11.610Z,4.20
2023-05-20T16:52:40.015Z,3.90
2023-05-20T16:55:10.511Z,3.80
2023-05-20T16:57:39.229Z,3.30
2023-05-20T17:00:10.303Z,3.53
2023-05-20T17:02:40.036Z,3.30
2023-05-20T17:05:09.767Z,3.38
2023-05-20T17:07:39.394Z,3.30
2023-05-20T17:10:08.848Z,3.50
2023-05-20T17:12:44.513Z,3.08
2023-05-20T17:15:12.894Z,3.55
2023-05-20T17:17:42.697Z,3.70
2023-05-20T17:20:12.635Z,3.10
2023-05-20T17:22:41.117Z,3.75
2023-05-20T17:25:10.819Z,3.25
2023-05-20T17:27:43.504Z,3.45
2023-05-20T17:30:12.857Z,3.88
2023-05-20T17:32:42.709Z,3.10
2023-05-20T17:35:12.712Z,2.90
2023-05-20T17:37:41.395Z,3.13
2023-05-20T17:40:12.366Z,3.23
2023-05-20T17:42:40.842Z,5.20
2023-05-20T17:45:12.609Z,7.23
2023-05-20T17:47:42.479Z,4.30
2023-05-20T17:50:14.631Z,3.73
2023-05-20T17:52:44.927Z,3.43
2023-05-20T17:55:14.550Z,3.23
2023-05-20T17:57:43.004Z,3.47
2023-05-20T18:00:13.474Z,3.80
2023-05-20T18:02:47.227Z,3.53
2023-05-20T18:05:16.902Z,3.93
2023-05-20T18:07:45.580Z,4.50
2023-05-20T18:10:14.297Z,4.83
2023-05-20T18:12:43.023Z,5.43
2023-05-20T18:15:13.937Z,4.30
2023-05-20T18:17:44.824Z,3.83
2023-05-20T18:20:14.464Z,4.03
2023-05-20T18:22:45.334Z,4.40
2023-05-20T18:25:21.007Z,4.10
2023-05-20T18:27:49.424Z,4.90
2023-05-20T18:30:17.941Z,5.33
2023-05-20T18:32:47.661Z,5.27
2023-05-20T18:35:16.636Z,6.57
2023-05-20T18:37:45.026Z,5.57
2023-05-20T18:40:16.542Z,3.50
2023-05-20T18:42:45.109Z,3.73
2023-05-20T18:45:13.755Z,4.33
2023-05-20T18:47:42.304Z,4.43
2023-05-20T18:50:15.403Z,4.50
2023-05-20T18:52:53.828Z,5.30
2023-05-20T18:55:22.210Z,7.27
2023-05-20T18:57:50.818Z,11.13
2023-05-20T19:00:19.590Z,5.90
2023-05-20T19:02:48.031Z,4.00
2023-05-20T19:05:18.003Z,3.50
2023-05-20T19:07:46.786Z,3.13
2023-05-20T19:10:15.575Z,3.80
2023-05-20T19:12:44.628Z,3.57
2023-05-20T19:15:13.707Z,3.90
2023-05-20T19:17:42.304Z,4.60
2023-05-20T19:20:12.064Z,4.70
2023-05-20T19:22:42.063Z,3.87
2023-05-20T19:25:13.365Z,3.77
2023-05-20T19:27:42.033Z,3.80
2023-05-20T19:30:12.325Z,3.60
2023-05-20T19:32:41.015Z,3.70
2023-05-20T19:35:10.202Z,3.80
2023-05-20T19:37:38.608Z,3.93
2023-05-20T19:40:09.912Z,3.30
2023-05-20T19:42:38.340Z,3.70
2023-05-20T19:45:07.889Z,3.60
2023-05-20T19:47:37.512Z,3.83
2023-05-20T19:50:06.815Z,3.17
2023-05-20T19:52:35.387Z,3.50
2023-05-20T19:55:03.893Z,5.50
2023-05-20T19:57:33.663Z,21.10
2023-05-20T20:00:15.504Z,4.00
2023-05-20T20:02:43.951Z,3.73
2023-05-20T20:05:13.885Z,3.67
2023-05-20T20:07:42.448Z,3.60
2023-05-20T20:10:12.800Z,4.07
2023-05-20T20:12:42.662Z,3.53
2023-05-20T20:15:14.560Z,4.10
2023-05-20T20:17:45.446Z,3.80
2023-05-20T20:20:15.381Z,3.80
2023-05-20T20:22:43.824Z,3.60
2023-05-20T20:25:14.025Z,3.80
2023-05-20T20:27:44.893Z,4.50
2023-05-20T20:30:15.060Z,4.07
2023-05-20T20:32:43.591Z,9.67
2023-05-20T20:35:12.972Z,7.20
2023-05-20T20:37:41.433Z,5.23
2023-05-20T20:40:13.734Z,5.53
2023-05-20T20:42:54.695Z,5.40
2023-05-20T20:45:23.702Z,5.80
2023-05-20T20:47:54.797Z,5.20
2023-05-20T20:50:23.341Z,7.80
2023-05-20T20:52:51.755Z,6.30
2023-05-20T20:55:20.249Z,6.77
2023-05-20T20:58:02.677Z,6.00
2023-05-20T21:00:31.341Z,6.10
2023-05-20T21:02:59.973Z,5.90
2023-05-20T21:05:29.227Z,8.43
2023-05-20T21:07:59.369Z,22.37
2023-05-20T21:10:29.519Z,8.00
2023-05-20T21:13:00.384Z,7.83
2023-05-20T21:15:28.816Z,5.47
2023-05-20T21:17:57.196Z,5.90
2023-05-20T21:20:25.674Z,6.17
2023-05-20T21:22:54.093Z,5.57
2023-05-20T21:25:22.500Z,5.53
2023-05-20T21:27:50.876Z,6.10
2023-05-20T21:30:24.128Z,6.07
2023-05-20T21:32:52.651Z,6.27
2023-05-20T21:35:21.099Z,6.13
2023-05-20T21:37:49.950Z,6.80
2023-05-20T21:40:18.483Z,6.60
2023-05-20T21:42:48.850Z,6.97
2023-05-20T21:45:17.714Z,8.83
2023-05-20T21:47:47.501Z,5.33
2023-05-20T21:50:15.977Z,5.53
2023-05-20T21:52:44.489Z,6.23
2023-05-20T21:55:16.009Z,5.97
2023-05-20T21:57:44.407Z,7.13
2023-05-20T22:00:15.612Z,6.73
2023-05-20T22:02:44.351Z,6.63
2023-05-20T22:05:15.897Z,6.70
2023-05-20T22:07:45.525Z,6.50
2023-05-20T22:10:17.872Z,7.07
2023-05-20T22:12:47.533Z,5.90
2023-05-20T22:15:16.092Z,6.80
2023-05-20T22:17:44.764Z,5.97
2023-05-20T22:20:16.003Z,6.17
2023-05-20T22:22:45.367Z,5.37
2023-05-20T22:25:14.314Z,4.97
2023-05-20T22:27:43.485Z,5.60
2023-05-20T22:30:12.761Z,5.80
2023-05-20T22:32:42.356Z,6.00
2023-05-20T22:35:14.258Z,5.33
2023-05-20T22:37:44.411Z,5.07
2023-05-20T22:40:14.387Z,5.13
2023-05-20T22:42:42.805Z,5.13
2023-05-20T22:45:11.873Z,5.37
2023-05-20T22:47:40.517Z,5.37
2023-05-20T22:50:09.841Z,5.37
2023-05-20T22:52:49.567Z,5.53
2023-05-20T22:55:18.055Z,5.70
2023-05-20T22:57:46.536Z,5.57
2023-05-20T23:00:20.795Z,5.47
2023-05-20T23:02:52.441Z,5.40
2023-05-20T23:05:21.125Z,5.23
2023-05-20T23:07:52.974Z,5.00
2023-05-20T23:10:21.866Z,5.23
2023-05-20T23:12:50.254Z,6.00
2023-05-20T23:15:19.197Z,5.37
2023-05-20T23:17:49.436Z,5.53
2023-05-20T23:20:22.406Z,5.30
2023-05-20T23:22:52.406Z,5.67
2023-05-20T23:25:20.785Z,4.93
2023-05-20T23:27:49.317Z,5.00
2023-05-20T23:30:18.132Z,4.80
2023-05-20T23:32:47.387Z,5.27
2023-05-20T23:35:18.977Z,4.93
2023-05-20T23:37:48.356Z,5.23
2023-05-20T23:40:18.653Z,4.97
2023-05-20T23:42:47.113Z,4.80
2023-05-20T23:45:16.894Z,5.13
2023-05-20T23:47:45.824Z,4.90
2023-05-20T23:50:15.415Z,4.93
2023-05-20T23:52:53.853Z,5.07
2023-05-20T23:55:23.644Z,4.97
2023-05-20T23:57:52.000Z,5.40
